createdAt,value
2023-04-23T00:02:05.928Z,11.73
2023-04-23T00:04:39.086Z,8.73
2023-04-23T00:07:13.480Z,13.43
2023-04-23T00:09:45.869Z,9.27
2023-04-23T00:12:18.661Z,17.58
2023-04-23T00:14:52.348Z,11.32
2023-04-23T00:17:24.974Z,16.15
2023-04-23T00:19:57.261Z,16.73
2023-04-23T00:22:29.703Z,18.48
2023-04-23T00:25:02.615Z,17.00
2023-04-23T00:27:35.071Z,12.95
2023-04-23T00:30:09.266Z,15.75
2023-04-23T00:32:41.983Z,14.80
2023-04-23T00:35:14.342Z,17.25
2023-04-23T00:37:46.992Z,16.33
2023-04-23T00:40:20.108Z,20.55
2023-04-23T00:42:53.379Z,19.17
2023-04-23T00:45:26.508Z,15.55
2023-04-23T00:47:59.065Z,12.98
2023-04-23T00:50:31.660Z,9.60
2023-04-23T00:53:05.025Z,8.93
2023-04-23T00:55:37.862Z,9.52
2023-04-23T00:58:10.212Z,10.50
2023-04-23T01:00:46.236Z,9.05
2023-04-23T01:03:21.038Z,7.28
2023-04-23T01:05:53.413Z,10.52
2023-04-23T01:08:26.182Z,7.93
2023-04-23T01:10:59.645Z,14.95
2023-04-23T01:13:32.987Z,7.22
2023-04-23T01:16:07.492Z,9.45
2023-04-23T01:18:41.114Z,12.05
2023-04-23T01:21:16.849Z,9.68
2023-04-23T01:23:49.997Z,8.57
2023-04-23T01:26:23.315Z,10.43
2023-04-23T01:28:55.760Z,8.98
2023-04-23T01:31:29.440Z,10.02
2023-04-23T01:34:02.604Z,9.55
2023-04-23T01:36:35.514Z,6.50
2023-04-23T01:39:09.294Z,12.45
2023-04-23T01:41:41.704Z,12.32
2023-04-23T01:44:16.668Z,7.30
2023-04-23T01:46:48.924Z,6.93
2023-04-23T01:49:21.379Z,6.93
2023-04-23T01:51:53.700Z,13.27
2023-04-23T01:54:26.705Z,6.07
2023-04-23T01:56:59.523Z,8.82
2023-04-23T01:59:32.023Z,8.73
2023-04-23T02:02:04.677Z,8.45
2023-04-23T02:04:38.818Z,11.52
2023-04-23T02:07:11.516Z,8.50
2023-04-23T02:09:44.496Z,8.95
2023-04-23T02:12:16.920Z,12.18
2023-04-23T02:14:49.338Z,10.75
2023-04-23T02:17:22.470Z,10.45
2023-04-23T02:19:55.567Z,9.88
2023-04-23T02:22:28.074Z,9.20
2023-04-23T02:25:01.663Z,16.52
2023-04-23T02:27:34.582Z,17.08
2023-04-23T02:30:08.787Z,13.40
2023-04-23T02:32:42.270Z,14.75
2023-04-23T02:35:14.634Z,16.60
2023-04-23T02:37:47.093Z,13.05
2023-04-23T02:40:20.178Z,10.77
2023-04-23T02:42:52.462Z,10.05
2023-04-23T02:45:25.097Z,12.00
2023-04-23T02:47:57.526Z,11.60
2023-04-23T02:50:29.956Z,11.20
2023-04-23T02:53:02.243Z,9.75
2023-04-23T02:55:36.214Z,9.98
2023-04-23T02:58:08.692Z,13.77
2023-04-23T03:00:42.955Z,9.30
2023-04-23T03:03:16.078Z,9.50
2023-04-23T03:05:48.575Z,8.30
2023-04-23T03:08:21.280Z,9.15
2023-04-23T03:10:54.498Z,10.05
2023-04-23T03:13:27.192Z,8.70
2023-04-23T03:15:59.680Z,6.97
2023-04-23T03:18:32.942Z,9.40
2023-04-23T03:21:05.836Z,11.10
2023-04-23T03:23:38.419Z,9.00
2023-04-23T03:26:12.285Z,9.43
2023-04-23T03:28:44.752Z,8.43
2023-04-23T03:31:17.418Z,12.05
2023-04-23T03:33:49.786Z,10.43
2023-04-23T03:36:31.632Z,15.60
2023-04-23T03:39:04.946Z,12.85
2023-04-23T03:41:50.308Z,13.32
2023-04-23T03:44:25.920Z,12.00
2023-04-23T03:46:59.192Z,10.02
2023-04-23T03:49:31.461Z,16.40
2023-04-23T03:52:04.100Z,16.30
2023-04-23T03:54:37.851Z,12.85
2023-04-23T03:57:16.341Z,13.65
2023-04-23T04:00:15.339Z,15.32
2023-04-23T04:02:48.623Z,16.77
2023-04-23T04:05:21.437Z,20.98
2023-04-23T04:07:54.035Z,12.52
2023-04-23T04:10:26.346Z,15.43
2023-04-23T04:12:59.388Z,29.17
2023-04-23T04:15:32.398Z,12.00
2023-04-23T04:18:04.923Z,16.85
2023-04-23T04:20:37.199Z,14.35
2023-04-23T04:23:09.652Z,12.93
2023-04-23T04:25:41.966Z,14.55
2023-04-23T04:28:15.074Z,14.27
2023-04-23T04:30:49.499Z,12.07
2023-04-23T04:33:21.833Z,12.55
2023-04-23T04:35:54.114Z,14.57
2023-04-23T04:38:26.432Z,10.70
2023-04-23T04:41:01.536Z,16.10
2023-04-23T04:43:34.639Z,17.42
2023-04-23T04:46:11.016Z,19.95
2023-04-23T04:48:43.412Z,16.10
2023-04-23T04:51:15.790Z,20.83
2023-04-23T04:54:11.361Z,19.08
2023-04-23T04:56:43.674Z,15.98
2023-04-23T04:59:16.650Z,17.13
2023-04-23T05:01:49.004Z,16.27
2023-04-23T05:04:21.315Z,18.98
2023-04-23T05:06:53.608Z,17.40
2023-04-23T05:09:25.972Z,21.95
2023-04-23T05:11:58.278Z,24.27
2023-04-23T05:14:31.202Z,20.88
2023-04-23T05:17:03.522Z,20.45
2023-04-23T05:19:36.024Z,14.70
2023-04-23T05:22:08.363Z,17.50
2023-04-23T05:24:40.865Z,21.30
2023-04-23T05:27:13.417Z,19.13
2023-04-23T05:29:46.430Z,17.92
2023-04-23T05:32:18.753Z,13.82
2023-04-23T05:34:51.077Z,11.57
2023-04-23T05:37:23.494Z,14.85
2023-04-23T05:39:56.775Z,12.80
2023-04-23T05:42:29.094Z,12.32
2023-04-23T05:45:02.367Z,11.00
2023-04-23T05:47:35.710Z,12.18
2023-04-23T05:50:10.512Z,13.98
2023-04-23T05:52:42.836Z,19.60
2023-04-23T05:55:15.483Z,12.50
2023-04-23T05:57:47.759Z,16.05
2023-04-23T06:00:20.886Z,12.43
2023-04-23T06:02:53.474Z,9.20
2023-04-23T06:05:26.211Z,8.85
2023-04-23T06:07:58.630Z,8.18
2023-04-23T06:10:30.998Z,9.02
2023-04-23T06:13:03.346Z,9.68
2023-04-23T06:15:36.328Z,12.20
2023-04-23T06:18:09.803Z,8.85
2023-04-23T06:20:42.353Z,12.48
2023-04-23T06:23:17.340Z,10.15
2023-04-23T06:25:49.637Z,11.10
2023-04-23T06:28:21.990Z,8.15
2023-04-23T06:31:15.142Z,9.57
2023-04-23T06:33:47.530Z,9.32
2023-04-23T06:36:19.858Z,7.90
2023-04-23T06:38:52.152Z,8.35
2023-04-23T06:41:24.457Z,7.93
2023-04-23T06:44:09.085Z,4.78
2023-04-23T06:46:45.831Z,6.97
2023-04-23T06:49:18.359Z,7.97
2023-04-23T06:51:50.650Z,11.90
2023-04-23T06:54:23.185Z,4.25
2023-04-23T06:56:56.246Z,6.20
2023-04-23T06:59:28.554Z,6.78
2023-04-23T07:02:04.047Z,4.30
2023-04-23T07:04:36.370Z,7.25
2023-04-23T07:07:08.685Z,3.63
2023-04-23T07:09:40.967Z,4.85
2023-04-23T07:12:13.344Z,4.80
2023-04-23T07:14:45.655Z,4.25
2023-04-23T07:17:18.608Z,5.75
2023-04-23T07:19:50.885Z,5.97
2023-04-23T07:22:23.802Z,7.15
2023-04-23T07:24:56.140Z,5.70
2023-04-23T07:27:28.453Z,5.30
2023-04-23T07:30:01.534Z,7.13
2023-04-23T07:32:34.559Z,6.18
2023-04-23T07:35:09.666Z,7.45
2023-04-23T07:37:42.003Z,7.35
2023-04-23T07:40:14.305Z,8.02
2023-04-23T07:42:46.711Z,5.78
2023-04-23T07:45:19.578Z,5.22
2023-04-23T07:47:52.790Z,5.47
2023-04-23T07:50:25.258Z,5.28
2023-04-23T07:52:57.861Z,4.57
2023-04-23T07:55:30.327Z,5.15
2023-04-23T07:58:02.744Z,4.32
2023-04-23T08:00:35.941Z,5.07
2023-04-23T08:03:09.112Z,3.45
2023-04-23T08:05:41.667Z,6.07
2023-04-23T08:08:14.030Z,8.35
2023-04-23T08:10:46.329Z,6.63
2023-04-23T08:13:19.123Z,8.45
2023-04-23T08:15:51.679Z,6.10
2023-04-23T08:18:24.712Z,9.10
2023-04-23T08:20:57.623Z,7.55
2023-04-23T08:23:30.084Z,10.27
2023-04-23T08:26:02.396Z,9.90
2023-04-23T08:28:34.815Z,7.10
2023-04-23T08:31:19.051Z,7.80
2023-04-23T08:33:58.697Z,8.15
2023-04-23T08:36:31.392Z,8.95
2023-04-23T08:39:03.923Z,7.35
2023-04-23T08:41:41.905Z,7.35
2023-04-23T08:44:18.793Z,7.57
2023-04-23T08:46:53.965Z,8.80
2023-04-23T08:49:32.891Z,9.68
2023-04-23T08:52:11.106Z,7.60
2023-04-23T08:54:49.173Z,8.38
2023-04-23T08:57:22.425Z,8.85
2023-04-23T08:59:56.677Z,7.50
2023-04-23T09:02:29.434Z,7.35
2023-04-23T09:05:04.007Z,6.90
2023-04-23T09:07:37.018Z,6.35
2023-04-23T09:10:11.791Z,7.57
2023-04-23T09:12:44.936Z,8.02
2023-04-23T09:15:17.524Z,7.10
2023-04-23T09:17:50.644Z,10.15
2023-04-23T09:20:23.732Z,6.82
2023-04-23T09:22:56.396Z,7.32
2023-04-23T09:25:30.312Z,7.05
2023-04-23T09:28:02.972Z,7.78
2023-04-23T09:30:39.227Z,4.75
2023-04-23T09:33:12.186Z,6.15
2023-04-23T09:35:47.328Z,7.00
2023-04-23T09:38:20.203Z,5.65
2023-04-23T09:40:52.538Z,6.25
2023-04-23T09:43:29.972Z,7.65
2023-04-23T09:46:02.440Z,6.65
2023-04-23T09:48:41.409Z,6.53
2023-04-23T09:51:14.711Z,6.40
2023-04-23T09:53:47.220Z,7.95
2023-04-23T09:56:20.652Z,7.70
2023-04-23T09:58:53.712Z,9.73
2023-04-23T10:01:29.672Z,7.90
2023-04-23T10:04:02.402Z,7.50
2023-04-23T10:09:12.193Z,5.88
2023-04-23T10:11:45.173Z,9.57
2023-04-23T10:14:18.149Z,8.45
2023-04-23T10:16:52.487Z,7.55
2023-04-23T10:19:26.762Z,7.28
2023-04-23T10:22:18.641Z,8.30
2023-04-23T10:24:57.510Z,8.60
2023-04-23T10:27:48.562Z,7.10
2023-04-23T10:30:24.083Z,9.68
2023-04-23T10:32:57.185Z,9.90
2023-04-23T10:35:30.122Z,7.10
2023-04-23T10:38:04.258Z,6.78
2023-04-23T10:40:39.760Z,7.65
2023-04-23T10:43:12.830Z,6.05
2023-04-23T10:45:45.353Z,6.22
2023-04-23T10:48:17.654Z,6.53
2023-04-23T10:51:09.682Z,5.95
2023-04-23T10:53:51.705Z,6.30
2023-04-23T10:56:27.370Z,8.75
2023-04-23T10:58:59.885Z,6.97
2023-04-23T11:01:32.219Z,5.45
2023-04-23T11:04:21.679Z,6.43
2023-04-23T11:07:03.882Z,12.95
2023-04-23T11:09:39.171Z,5.05
2023-04-23T11:12:13.240Z,4.88
2023-04-23T11:14:49.622Z,7.03
2023-04-23T11:17:23.714Z,7.22
2023-04-23T11:20:09.819Z,5.85
2023-04-23T11:22:43.649Z,6.25
2023-04-23T11:25:21.231Z,5.63
2023-04-23T11:27:54.831Z,3.70
2023-04-23T11:30:28.793Z,8.27
2023-04-23T11:33:02.303Z,4.93
2023-04-23T11:35:39.856Z,3.83
2023-04-23T11:38:12.167Z,4.55
2023-04-23T11:40:47.807Z,3.95
2023-04-23T11:43:20.706Z,5.18
2023-04-23T11:45:55.312Z,5.93
2023-04-23T11:48:27.760Z,2.65
2023-04-23T11:51:00.124Z,3.13
2023-04-23T11:53:32.824Z,3.53
2023-04-23T11:56:06.801Z,2.53
2023-04-23T11:58:39.467Z,2.88
2023-04-23T12:01:12.669Z,6.00
2023-04-23T12:03:48.834Z,4.97
2023-04-23T12:06:24.204Z,7.88
2023-04-23T12:08:56.493Z,4.00
2023-04-23T12:11:29.495Z,3.65
2023-04-23T12:14:01.930Z,3.75
2023-04-23T12:16:39.055Z,3.95
2023-04-23T12:19:14.209Z,3.10
2023-04-23T12:21:53.829Z,2.75
2023-04-23T12:24:28.163Z,6.65
2023-04-23T12:27:01.955Z,3.85
2023-04-23T12:29:35.228Z,3.88
2023-04-23T12:32:10.550Z,15.63
2023-04-23T12:34:52.259Z,4.68
2023-04-23T12:37:26.117Z,4.40
2023-04-23T12:39:58.862Z,8.18
2023-04-23T12:42:31.863Z,5.75
2023-04-23T12:45:09.644Z,4.72
2023-04-23T12:47:41.914Z,3.95
2023-04-23T12:50:14.334Z,4.75
2023-04-23T12:52:46.656Z,3.67
2023-04-23T12:55:19.258Z,6.80
2023-04-23T12:57:52.724Z,3.60
2023-04-23T13:00:25.352Z,5.75
2023-04-23T13:02:57.888Z,4.70
2023-04-23T13:05:30.551Z,9.95
2023-04-23T13:08:02.935Z,4.80
2023-04-23T13:10:35.393Z,5.05
2023-04-23T13:13:08.475Z,8.25
2023-04-23T13:15:42.229Z,7.22
2023-04-23T13:18:14.598Z,4.93
2023-04-23T13:20:46.903Z,6.75
2023-04-23T13:23:19.317Z,3.45
2023-04-23T13:25:51.713Z,11.23
2023-04-23T13:28:24.669Z,17.17
2023-04-23T13:30:57.113Z,5.65
2023-04-23T13:33:30.212Z,5.13
2023-04-23T13:36:02.931Z,4.70
2023-04-23T13:38:35.333Z,4.72
2023-04-23T13:41:07.617Z,3.95
2023-04-23T13:43:40.622Z,4.97
2023-04-23T13:46:13.566Z,4.38
2023-04-23T13:48:45.931Z,3.95
2023-04-23T13:51:34.214Z,5.20
2023-04-23T13:54:07.947Z,3.45
2023-04-23T13:56:40.288Z,4.45
2023-04-23T13:59:19.803Z,4.57
2023-04-23T14:01:53.076Z,5.13
2023-04-23T14:04:26.238Z,7.80
2023-04-23T14:06:58.585Z,6.93
2023-04-23T14:09:30.975Z,5.28
2023-04-23T14:12:04.008Z,5.80
2023-04-23T14:14:37.630Z,5.22
2023-04-23T14:17:09.926Z,5.00
2023-04-23T14:19:42.335Z,5.90
2023-04-23T14:22:14.979Z,4.47
2023-04-23T14:24:51.165Z,4.53
2023-04-23T14:27:23.532Z,4.22
2023-04-23T14:30:04.326Z,4.95
2023-04-23T14:32:36.725Z,3.00
2023-04-23T14:35:09.420Z,5.97
2023-04-23T14:37:44.581Z,4.43
2023-04-23T14:40:19.213Z,3.67
2023-04-23T14:42:52.513Z,3.83
2023-04-23T14:45:30.542Z,6.25
2023-04-23T14:48:03.321Z,5.70
2023-04-23T14:50:35.723Z,5.00
2023-04-23T14:53:09.827Z,8.10
2023-04-23T14:55:42.744Z,8.35
2023-04-23T14:58:15.066Z,5.72
2023-04-23T15:00:50.216Z,4.65
2023-04-23T15:03:22.710Z,5.53
2023-04-23T15:05:55.126Z,6.68
2023-04-23T15:08:27.534Z,6.32
2023-04-23T15:10:59.874Z,4.97
2023-04-23T15:13:46.455Z,5.75
2023-04-23T15:16:39.972Z,5.63
2023-04-23T15:19:18.788Z,6.50
2023-04-23T15:21:51.317Z,5.53
2023-04-23T15:24:23.587Z,7.35
2023-04-23T15:26:57.427Z,11.35
2023-04-23T15:29:29.950Z,9.35
2023-04-23T15:32:03.163Z,5.15
2023-04-23T15:34:35.811Z,5.80
2023-04-23T15:37:08.363Z,6.05
2023-04-23T15:39:40.783Z,6.97
2023-04-23T15:42:15.044Z,8.13
2023-04-23T15:44:48.449Z,4.57
2023-04-23T15:47:22.504Z,7.72
2023-04-23T15:49:54.818Z,4.32
2023-04-23T15:52:27.174Z,9.73
2023-04-23T15:54:59.977Z,3.85
2023-04-23T15:57:32.794Z,5.40
2023-04-23T16:00:06.392Z,4.90
2023-04-23T16:02:45.108Z,4.25
2023-04-23T16:05:20.469Z,4.07
2023-04-23T16:07:52.963Z,5.43
2023-04-23T16:10:26.947Z,4.53
2023-04-23T16:12:59.471Z,7.00
2023-04-23T16:15:32.150Z,5.43
2023-04-23T16:18:05.726Z,6.57
2023-04-23T16:20:38.224Z,3.78
2023-04-23T16:23:10.589Z,5.28
2023-04-23T16:25:43.338Z,8.00
2023-04-23T16:28:15.867Z,6.18
2023-04-23T16:30:48.177Z,4.55
2023-04-23T16:33:23.134Z,6.35
2023-04-23T16:35:56.439Z,5.78
2023-04-23T16:38:28.729Z,5.20
2023-04-23T16:41:01.433Z,7.22
2023-04-23T16:43:33.745Z,7.47
2023-04-23T16:46:08.551Z,7.20
2023-04-23T16:48:41.766Z,9.68
2023-04-23T16:51:14.200Z,32.13
2023-04-23T16:53:46.595Z,27.83
2023-04-23T16:56:18.970Z,9.45
2023-04-23T16:58:51.346Z,12.95
2023-04-23T17:01:23.725Z,11.57
2023-04-23T17:03:56.870Z,17.15
2023-04-23T17:06:31.518Z,21.95
2023-04-23T17:09:04.554Z,18.65
2023-04-23T17:11:36.864Z,7.78
2023-04-23T17:14:09.171Z,8.05
2023-04-23T17:16:41.725Z,6.97
2023-04-23T17:19:15.389Z,6.47
2023-04-23T17:21:47.686Z,7.50
2023-04-23T17:24:20.001Z,17.02
2023-04-23T17:26:52.342Z,10.02
2023-04-23T17:29:25.141Z,11.15
2023-04-23T17:31:57.557Z,10.18
2023-04-23T17:34:30.859Z,8.70
2023-04-23T17:37:03.261Z,8.52
2023-04-23T17:39:35.564Z,12.05
2023-04-23T17:42:08.079Z,16.00
2023-04-23T17:44:41.042Z,13.43
2023-04-23T17:47:13.530Z,11.85
2023-04-23T17:49:46.672Z,12.93
2023-04-23T17:52:19.024Z,16.67
2023-04-23T17:54:51.316Z,15.55
2023-04-23T17:57:23.660Z,11.75
2023-04-23T17:59:58.510Z,9.20
2023-04-23T18:02:30.961Z,11.23
2023-04-23T18:05:05.306Z,10.73
2023-04-23T18:07:38.431Z,12.38
2023-04-23T18:10:11.828Z,9.00
2023-04-23T18:12:44.199Z,10.60
2023-04-23T18:15:16.681Z,10.23
2023-04-23T18:17:49.627Z,11.05
2023-04-23T18:20:24.868Z,11.10
2023-04-23T18:22:57.586Z,11.93
2023-04-23T18:25:29.974Z,8.90
2023-04-23T18:28:02.673Z,5.45
2023-04-23T18:30:37.246Z,6.80
2023-04-23T18:33:25.147Z,12.85
2023-04-23T18:36:04.232Z,14.73
2023-04-23T18:38:43.626Z,13.82
2023-04-23T18:41:16.060Z,13.18
2023-04-23T18:43:48.461Z,14.25
2023-04-23T18:46:23.010Z,12.77
2023-04-23T18:48:59.568Z,13.50
2023-04-23T18:51:37.853Z,17.35
2023-04-23T18:54:14.105Z,14.90
2023-04-23T18:56:47.197Z,22.55
2023-04-23T18:59:19.587Z,19.23
2023-04-23T19:01:52.079Z,32.53
2023-04-23T19:04:24.893Z,44.67
2023-04-23T19:06:58.953Z,26.58
2023-04-23T19:09:31.296Z,27.55
2023-04-23T19:12:04.109Z,35.53
2023-04-23T19:14:36.930Z,43.65
2023-04-23T19:17:09.307Z,50.67
2023-04-23T19:19:41.801Z,48.60
2023-04-23T19:22:14.998Z,37.72
2023-04-23T19:24:47.353Z,44.20
2023-04-23T19:27:20.835Z,35.78
2023-04-23T19:29:53.849Z,30.55
2023-04-23T19:32:26.494Z,22.90
2023-04-23T19:34:58.950Z,27.08
2023-04-23T19:37:32.067Z,32.53
2023-04-23T19:40:06.315Z,27.45
2023-04-23T19:42:38.615Z,30.35
2023-04-23T19:45:11.819Z,30.17
2023-04-23T19:47:44.229Z,20.77
2023-04-23T19:50:18.751Z,19.92
2023-04-23T19:52:51.824Z,20.67
2023-04-23T19:55:26.358Z,20.75
2023-04-23T19:57:58.804Z,24.63
2023-04-23T20:00:31.200Z,29.75
2023-04-23T20:03:04.216Z,27.70
2023-04-23T20:05:36.849Z,21.75
2023-04-23T20:08:14.631Z,24.52
2023-04-23T20:10:46.964Z,31.42
2023-04-23T20:13:19.904Z,19.20
2023-04-23T20:15:53.267Z,34.33
2023-04-23T20:18:28.478Z,22.95
2023-04-23T20:21:00.855Z,22.27
2023-04-23T20:23:33.833Z,21.58
2023-04-23T20:26:06.876Z,24.67
2023-04-23T20:28:39.198Z,24.13
2023-04-23T20:31:11.693Z,18.02
2023-04-23T20:33:44.001Z,23.00
2023-04-23T20:36:16.548Z,22.70
2023-04-23T20:38:53.522Z,23.92
2023-04-23T20:41:28.543Z,31.73
2023-04-23T20:44:01.249Z,33.67
2023-04-23T20:46:33.707Z,34.60
2023-04-23T20:49:06.692Z,27.70
2023-04-23T20:51:39.058Z,26.20
2023-04-23T20:54:12.210Z,22.50
2023-04-23T20:56:44.608Z,26.27
2023-04-23T20:59:16.927Z,27.42
2023-04-23T21:01:49.486Z,23.70
2023-04-23T21:04:22.490Z,25.25
2023-04-23T21:06:54.881Z,24.58
2023-04-23T21:09:27.829Z,21.02
2023-04-23T21:12:00.161Z,24.63
2023-04-23T21:14:33.046Z,24.77
2023-04-23T21:17:05.336Z,20.48
2023-04-23T21:19:37.687Z,24.08
2023-04-23T21:22:10.110Z,16.30
2023-04-23T21:24:43.173Z,21.75
2023-04-23T21:27:20.725Z,21.00
2023-04-23T21:29:53.043Z,13.82
2023-04-23T21:32:25.321Z,18.02
2023-04-23T21:34:57.700Z,17.17
2023-04-23T21:37:30.626Z,16.23
2023-04-23T21:40:04.277Z,9.85
2023-04-23T21:42:36.691Z,5.97
2023-04-23T21:45:09.783Z,11.95
2023-04-23T21:47:42.113Z,17.17
2023-04-23T21:50:16.743Z,13.60
2023-04-23T21:52:51.792Z,16.00
2023-04-23T21:55:25.997Z,14.05
2023-04-23T21:58:09.831Z,17.55
2023-04-23T22:00:49.232Z,31.13
2023-04-23T22:03:37.917Z,24.15
2023-04-23T22:08:45.452Z,9.27
2023-04-23T22:11:18.811Z,8.73
2023-04-23T22:13:51.091Z,7.07
2023-04-23T22:16:28.534Z,12.98
2023-04-23T22:19:01.671Z,7.85
2023-04-23T22:21:34.001Z,8.00
2023-04-23T22:24:06.832Z,8.90
2023-04-23T22:26:39.794Z,9.85
2023-04-23T22:29:12.442Z,7.07
2023-04-23T22:31:44.966Z,10.48
2023-04-23T22:34:18.600Z,7.75
2023-04-23T22:36:51.035Z,8.52
2023-04-23T22:39:23.392Z,7.40
2023-04-23T22:41:56.526Z,6.03
2023-04-23T22:44:28.872Z,5.32
2023-04-23T22:47:01.359Z,7.53
2023-04-23T22:49:34.234Z,7.25
2023-04-23T22:52:08.030Z,9.48
2023-04-23T22:54:40.517Z,7.05
2023-04-23T22:57:14.026Z,4.97
2023-04-23T22:59:46.381Z,8.23
2023-04-23T23:02:18.792Z,7.80
2023-04-23T23:04:51.125Z,10.63
2023-04-23T23:07:23.460Z,5.95
2023-04-23T23:09:55.861Z,12.13
2023-04-23T23:12:28.853Z,6.90
2023-04-23T23:15:01.589Z,7.32
2023-04-23T23:17:34.169Z,5.18
2023-04-23T23:20:08.190Z,7.85
2023-04-23T23:22:40.513Z,11.82
2023-04-23T23:25:12.859Z,6.30
2023-04-23T23:27:45.886Z,6.53
2023-04-23T23:30:18.397Z,7.45
2023-04-23T23:32:50.761Z,6.95
2023-04-23T23:35:23.177Z,5.72
2023-04-23T23:37:56.062Z,5.55
2023-04-23T23:40:28.401Z,10.52
2023-04-23T23:43:01.364Z,5.90
2023-04-23T23:45:33.817Z,6.50
2023-04-23T23:48:06.394Z,7.10
2023-04-23T23:50:38.746Z,5.63
2023-04-23T23:53:11.109Z,6.18
2023-04-23T23:55:43.337Z,5.28
2023-04-23T23:58:16.328Z,8.80
